createdAt,value
2022-11-08T00:03:10.766Z,88.33
2022-11-08T00:08:42.407Z,87.49
2022-11-08T00:14:14.203Z,86.94
2022-11-08T00:19:45.987Z,87.63
2022-11-08T00:25:17.729Z,86.88
2022-11-08T00:36:21.305Z,86.48
2022-11-08T00:38:32.994Z,87.04
2022-11-08T00:44:04.964Z,86.94
2022-11-08T00:49:36.585Z,87.57
2022-11-08T00:55:08.275Z,88.14
2022-11-08T01:00:40.108Z,88.01
2022-11-08T01:06:11.861Z,87.63
2022-11-08T01:11:44.195Z,88.26
2022-11-08T01:17:15.941Z,89.09
2022-11-08T01:22:47.658Z,88.33
2022-11-08T01:28:19.794Z,87.99
2022-11-08T01:33:51.905Z,87.44
2022-11-08T01:39:23.098Z,87.13
2022-11-08T01:44:54.767Z,87.34
2022-11-08T01:50:26.726Z,87.38
2022-11-08T01:55:58.510Z,87.83
2022-11-08T02:01:30.754Z,86.18
2022-11-08T02:07:02.571Z,87.71
2022-11-08T02:12:34.698Z,88.37
2022-11-08T02:18:06.558Z,87.68
2022-11-08T02:23:37.908Z,87.33
2022-11-08T02:29:09.275Z,87.01
2022-11-08T02:34:41.314Z,86.80
2022-11-08T02:45:47.324Z,87.34
2022-11-08T02:51:19.288Z,89.36
2022-11-08T02:56:50.829Z,87.76
2022-11-08T03:02:22.881Z,88.04
2022-11-08T03:07:56.237Z,88.24
2022-11-08T03:13:28.219Z,89.25
2022-11-08T03:18:59.856Z,84.05
2022-11-08T03:24:31.760Z,87.23
2022-11-08T03:30:03.499Z,83.95
2022-11-08T03:35:35.455Z,85.86
2022-11-08T03:41:06.986Z,86.97
2022-11-08T03:46:38.758Z,83.73
2022-11-08T03:52:10.464Z,85.93
2022-11-08T03:57:42.290Z,88.06
2022-11-08T04:08:43.465Z,88.38
2022-11-08T04:19:46.994Z,87.47
2022-11-08T04:25:18.652Z,85.46
2022-11-08T04:30:50.898Z,87.75
2022-11-08T04:36:22.694Z,87.43
2022-11-08T04:41:59.187Z,88.36
2022-11-08T04:47:26.179Z,88.12
2022-11-08T04:52:57.914Z,89.36
2022-11-08T04:58:29.792Z,88.82
2022-11-08T05:04:01.664Z,88.48
2022-11-08T05:09:33.340Z,88.36
2022-11-08T05:15:05.302Z,88.43
2022-11-08T05:20:37.021Z,88.94
2022-11-08T05:26:08.922Z,89.03
2022-11-08T05:31:40.651Z,89.38
2022-11-08T05:37:12.317Z,86.95
2022-11-08T05:42:44.306Z,87.49
2022-11-08T05:48:16.169Z,88.02
2022-11-08T05:59:17.126Z,88.62
2022-11-08T06:04:48.913Z,88.83
2022-11-08T06:10:20.848Z,88.82
2022-11-08T06:15:52.586Z,89.87
2022-11-08T06:21:26.438Z,90.35
2022-11-08T06:26:58.349Z,89.39
2022-11-08T06:32:29.998Z,89.38
2022-11-08T06:38:04.584Z,90.13
2022-11-08T06:43:33.847Z,90.64
2022-11-08T06:49:05.932Z,90.33
2022-11-08T06:54:37.827Z,88.83
2022-11-08T07:00:09.878Z,86.39
2022-11-08T07:05:41.453Z,84.45
2022-11-08T07:11:19.527Z,81.78
2022-11-08T07:16:53.340Z,80.04
2022-11-08T07:22:25.548Z,80.33
2022-11-08T07:27:59.571Z,78.13
2022-11-08T07:33:31.302Z,78.08
2022-11-08T07:39:06.662Z,76.61
2022-11-08T07:44:36.118Z,79.08
2022-11-08T07:50:08.225Z,73.17
2022-11-08T07:55:40.103Z,71.84
2022-11-08T08:01:11.805Z,70.49
2022-11-08T08:06:43.519Z,69.35
2022-11-08T08:12:15.326Z,70.31
2022-11-08T08:17:47.224Z,69.79
2022-11-08T08:23:19.249Z,69.25
2022-11-08T08:28:50.492Z,70.67
2022-11-08T08:34:22.310Z,66.19
2022-11-08T08:39:54.768Z,66.52
2022-11-08T08:45:26.797Z,69.20
2022-11-08T08:50:58.652Z,67.70
2022-11-08T08:56:30.926Z,68.22
2022-11-08T09:02:02.458Z,65.17
2022-11-08T09:07:34.439Z,66.14
2022-11-08T09:18:36.164Z,68.11
2022-11-08T09:24:07.922Z,68.21
2022-11-08T09:29:39.759Z,68.26
2022-11-08T09:35:11.514Z,66.38
2022-11-08T09:46:13.423Z,68.96
2022-11-08T09:51:45.205Z,69.94
2022-11-08T09:57:16.858Z,71.59
2022-11-08T10:02:48.849Z,71.90
2022-11-08T10:08:20.377Z,70.43
2022-11-08T10:13:52.460Z,71.65
2022-11-08T10:19:24.660Z,70.90
2022-11-08T10:24:56.391Z,68.96
2022-11-08T10:30:28.105Z,68.19
2022-11-08T10:36:02.470Z,68.24
2022-11-08T10:41:32.533Z,70.36
2022-11-08T10:47:04.009Z,68.94
2022-11-08T10:52:36.142Z,69.64
2022-11-08T10:58:07.949Z,69.64
2022-11-08T11:03:40.107Z,70.46
2022-11-08T11:09:11.786Z,70.39
2022-11-08T11:14:43.735Z,70.09
2022-11-08T11:20:16.069Z,68.84
2022-11-08T11:25:48.251Z,68.98
2022-11-08T11:31:20.448Z,68.61
2022-11-08T11:36:52.321Z,69.23
2022-11-08T11:42:44.462Z,67.44
2022-11-08T11:47:56.895Z,68.80
2022-11-08T11:53:28.651Z,68.04
2022-11-08T11:59:00.665Z,68.59
2022-11-08T12:04:32.925Z,68.38
2022-11-08T12:10:04.616Z,68.19
2022-11-08T12:15:38.156Z,68.79
2022-11-08T12:21:10.010Z,68.56
2022-11-08T12:26:43.846Z,68.78
2022-11-08T12:32:15.766Z,68.45
2022-11-08T12:37:47.927Z,68.15
2022-11-08T12:43:20.128Z,66.97
2022-11-08T12:48:52.002Z,66.27
2022-11-08T12:54:23.746Z,65.88
2022-11-08T12:59:55.573Z,66.64
2022-11-08T13:05:27.774Z,65.91
2022-11-08T13:10:59.310Z,65.71
2022-11-08T13:22:05.353Z,65.39
2022-11-08T13:27:37.316Z,65.97
2022-11-08T13:33:13.761Z,66.12
2022-11-08T13:38:46.747Z,66.45
2022-11-08T14:14:24.454Z,65.06
2022-11-08T14:19:56.285Z,64.43
2022-11-08T14:25:28.156Z,64.06
2022-11-08T14:30:59.981Z,65.65
2022-11-08T14:36:31.857Z,65.34
2022-11-08T14:42:16.790Z,65.81
2022-11-08T14:53:20.763Z,66.69
2022-11-08T15:04:25.850Z,66.71
2022-11-08T15:09:57.810Z,67.06
2022-11-08T15:15:29.516Z,67.03
2022-11-08T15:21:01.504Z,66.87
2022-11-08T15:26:35.292Z,67.00
2022-11-08T15:40:01.173Z,67.51
2022-11-08T15:45:36.736Z,67.79
2022-11-08T15:56:40.366Z,68.72
2022-11-08T16:02:12.055Z,69.17
2022-11-08T16:10:07.449Z,70.03
2022-11-08T16:26:48.931Z,71.71
2022-11-08T16:32:20.584Z,72.40
2022-11-08T16:37:52.581Z,71.89
2022-11-08T16:43:24.454Z,73.93
2022-11-08T16:48:56.013Z,73.64
2022-11-08T16:54:28.120Z,73.57
2022-11-08T17:05:31.811Z,75.35
2022-11-08T17:11:03.528Z,75.13
2022-11-08T17:16:35.461Z,75.56
2022-11-08T17:22:07.096Z,76.59
2022-11-08T17:33:10.459Z,76.94
2022-11-08T17:38:42.187Z,78.94
2022-11-08T17:44:14.073Z,80.20
2022-11-08T17:49:45.756Z,79.58
2022-11-08T17:55:17.579Z,78.09
2022-11-08T18:00:49.702Z,77.67
2022-11-08T18:06:21.005Z,78.22
2022-11-08T18:11:52.605Z,77.84
2022-11-08T18:17:24.266Z,78.21
2022-11-08T18:22:57.943Z,78.60
2022-11-08T18:28:32.355Z,79.09
2022-11-08T18:39:37.833Z,79.55
2022-11-08T18:50:41.525Z,78.98
2022-11-08T18:56:13.242Z,78.72
2022-11-08T19:01:45.067Z,78.13
2022-11-08T19:07:18.932Z,79.31
2022-11-08T19:12:50.476Z,79.01
2022-11-08T19:18:24.818Z,78.53
2022-11-08T19:23:56.259Z,78.34
2022-11-08T19:29:27.887Z,79.24
2022-11-08T19:34:59.425Z,78.75
2022-11-08T19:40:32.391Z,79.46
2022-11-08T19:46:03.212Z,79.16
2022-11-08T19:51:35.089Z,79.14
2022-11-08T19:57:06.822Z,79.04
2022-11-08T20:02:38.190Z,78.46
2022-11-08T20:08:10.028Z,78.67
2022-11-08T20:13:42.121Z,78.81
2022-11-08T20:19:13.703Z,77.56
2022-11-08T20:24:45.791Z,78.00
2022-11-08T20:30:18.155Z,77.54
2022-11-08T20:32:41.665Z,77.87
2022-11-08T20:38:13.357Z,78.72
2022-11-08T20:43:45.357Z,79.90
2022-11-08T20:49:17.087Z,80.43
2022-11-08T20:54:49.106Z,79.72
2022-11-08T21:00:37.991Z,79.06
2022-11-08T21:05:53.279Z,79.20
2022-11-08T21:11:24.887Z,80.97
2022-11-08T21:22:26.387Z,79.88
2022-11-08T21:33:30.853Z,80.56
2022-11-08T21:44:34.810Z,81.08
2022-11-08T21:50:06.799Z,81.61
2022-11-08T21:55:39.100Z,83.29
2022-11-08T22:01:11.269Z,82.30
2022-11-08T22:06:47.670Z,82.39
2022-11-08T22:12:16.620Z,82.89
2022-11-08T22:23:18.531Z,82.31
2022-11-08T22:34:24.260Z,81.94
2022-11-08T22:39:56.461Z,82.08
2022-11-08T22:47:49.373Z,81.88
2022-11-08T22:53:21.389Z,82.18
2022-11-08T22:58:53.096Z,82.15
2022-11-08T23:09:54.506Z,82.58
2022-11-08T23:15:26.600Z,82.79
2022-11-08T23:20:58.499Z,83.09
2022-11-08T23:26:32.568Z,82.92
2022-11-08T23:37:33.773Z,82.64
2022-11-08T23:48:38.519Z,82.43
2022-11-08T23:54:10.757Z,82.00
2022-11-08T23:59:42.415Z,81.72
